Time;durP1;ratioP1;P1;durP2;ratioP2;P2;SDS_P1;SDS_P2;PMS_P1;PMS_P2;Temp;Humidity;BMP_temperature;BMP_pressure;BME280_temperature;BME280_humidity;BME280_pressure;Samples;Min_cycle;Max_cycle;Signal;HPM_P1;HPM_P2
2023/06/18 00:02:16;;;;;;;4.95;3.17;;;;;;;;;;8345902;28;20036;-60
2023/06/18 00:06:16;;;;;;;4.32;2.58;;;;;;;;;;8344731;28;20107;-60
2023/06/18 00:10:16;;;;;;;3.47;2.80;;;;;;;;;;8345777;28;20393;-60
2023/06/18 00:14:17;;;;;;;3.17;2.63;;;;;;;;;;8345083;28;20039;-60
2023/06/18 00:18:17;;;;;;;7.05;2.53;;;;;;;;;;8345413;28;20127;-60
2023/06/18 00:22:17;;;;;;;7.07;2.90;;;;;;;;;;8345055;28;20024;-60
2023/06/18 00:26:17;;;;;;;4.10;2.80;;;;;;;;;;8344888;28;20020;-60
2023/06/18 00:30:18;;;;;;;6.43;2.70;;;;;;;;;;8344565;28;20033;-60
2023/06/18 00:34:18;;;;;;;4.18;3.00;;;;;;;;;;8345273;28;20054;-60
2023/06/18 00:38:19;;;;;;;4.07;2.92;;;;;;;;;;8339353;28;20253;-60
2023/06/18 00:42:20;;;;;;;3.67;2.72;;;;;;;;;;8340018;28;20029;-60
2023/06/18 00:46:20;;;;;;;3.20;2.88;;;;;;;;;;8341285;28;20063;-60
2023/06/18 00:50:20;;;;;;;3.03;2.72;;;;;;;;;;8343562;28;20108;-60
2023/06/18 00:54:21;;;;;;;4.40;2.80;;;;;;;;;;8345682;28;20035;-61
2023/06/18 00:58:23;;;;;;;3.95;3.00;;;;;;;;;;8341507;28;20025;-60
2023/06/18 01:02:25;;;;;;;3.67;3.10;;;;;;;;;;8341884;28;20027;-60
2023/06/18 01:06:26;;;;;;;3.17;2.88;;;;;;;;;;8344600;28;20093;-60
2023/06/18 01:10:29;;;;;;;5.60;3.35;;;;;;;;;;8342267;28;20147;-60
2023/06/18 01:14:30;;;;;;;;;;;;;;;;;;8342933;28;20067;-60
2023/06/18 01:18:36;;;;;;;3.23;2.87;;;;;;;;;;8343121;28;20035;-60
2023/06/18 01:22:57;;;;;;;5.13;2.90;;;;;;;;;;8342305;28;20279;-60
2023/06/18 01:26:58;;;;;;;4.43;2.90;;;;;;;;;;8345244;28;20438;-60
2023/06/18 01:30:58;;;;;;;3.67;2.85;;;;;;;;;;8344542;28;20053;-60
2023/06/18 01:35:00;;;;;;;3.58;2.97;;;;;;;;;;8344604;28;20041;-60
2023/06/18 01:39:07;;;;;;;3.13;2.83;;;;;;;;;;8346017;28;20094;-60
2023/06/18 01:43:11;;;;;;;4.10;2.92;;;;;;;;;;8347515;28;20538;-60
2023/06/18 01:47:13;;;;;;;2.97;2.67;;;;;;;;;;8351842;28;20085;-60
2023/06/18 01:51:16;;;;;;;5.72;3.05;;;;;;;;;;8351424;28;20024;-60
2023/06/18 01:55:17;;;;;;;3.80;3.40;;;;;;;;;;8350415;28;20035;-60
2023/06/18 01:59:17;;;;;;;3.30;3.00;;;;;;;;;;8351683;28;20031;-60
2023/06/18 02:03:17;;;;;;;5.15;3.00;;;;;;;;;;8348876;28;20021;-60
2023/06/18 02:07:17;;;;;;;3.42;3.00;;;;;;;;;;8350295;28;20040;-60
2023/06/18 02:11:18;;;;;;;3.30;3.00;;;;;;;;;;8351032;28;20025;-60
2023/06/18 02:15:18;;;;;;;3.70;2.85;;;;;;;;;;8351503;28;20470;-60
2023/06/18 02:19:18;;;;;;;3.40;2.95;;;;;;;;;;8351366;28;20021;-60
2023/06/18 02:23:18;;;;;;;4.45;2.80;;;;;;;;;;8349650;28;20143;-60
2023/06/18 02:27:18;;;;;;;4.07;2.72;;;;;;;;;;8350612;28;20059;-60
2023/06/18 02:31:19;;;;;;;3.22;2.92;;;;;;;;;;8350838;28;20060;-60
2023/06/18 02:35:19;;;;;;;3.65;2.85;;;;;;;;;;8349570;28;20032;-60
2023/06/18 02:39:19;;;;;;;3.95;2.97;;;;;;;;;;8348895;28;20024;-60
2023/06/18 02:43:20;;;;;;;3.30;2.97;;;;;;;;;;8350292;28;20070;-60
2023/06/18 02:47:20;;;;;;;3.65;2.85;;;;;;;;;;8348694;28;20616;-60
2023/06/18 02:51:21;;;;;;;3.37;3.07;;;;;;;;;;8349612;28;20591;-60
2023/06/18 02:55:22;;;;;;;4.22;3.33;;;;;;;;;;8349555;28;20489;-60
2023/06/18 02:59:23;;;;;;;3.60;3.30;;;;;;;;;;8349425;28;20970;-60
2023/06/18 03:03:23;;;;;;;3.10;2.80;;;;;;;;;;8349892;28;20047;-60
2023/06/18 03:07:23;;;;;;;3.47;3.07;;;;;;;;;;8347709;28;20046;-60
2023/06/18 03:11:23;;;;;;;3.92;2.97;;;;;;;;;;8349838;28;20264;-60
2023/06/18 03:15:23;;;;;;;2.83;2.63;;;;;;;;;;8346936;28;20071;-60
2023/06/18 03:19:24;;;;;;;4.88;3.00;;;;;;;;;;8349955;28;20143;-60
2023/06/18 03:23:24;;;;;;;3.72;2.78;;;;;;;;;;8348253;28;20032;-60
2023/06/18 03:27:25;;;;;;;4.10;3.20;;;;;;;;;;8347852;28;20032;-60
2023/06/18 03:31:26;;;;;;;3.55;3.20;;;;;;;;;;8349122;28;20068;-60
2023/06/18 03:35:26;;;;;;;3.90;3.20;;;;;;;;;;8346365;28;20113;-61
2023/06/18 03:39:27;;;;;;;4.03;2.75;;;;;;;;;;8348890;28;20021;-61
2023/06/18 03:43:28;;;;;;;3.80;3.03;;;;;;;;;;8347372;28;20020;-60
2023/06/18 03:47:29;;;;;;;3.67;3.20;;;;;;;;;;8346721;28;20040;-60
2023/06/18 03:51:29;;;;;;;4.43;2.90;;;;;;;;;;8347107;28;20012;-60
2023/06/18 03:55:29;;;;;;;3.53;3.00;;;;;;;;;;8346057;28;20082;-60
2023/06/18 03:59:30;;;;;;;3.90;3.15;;;;;;;;;;8346202;28;20017;-61
2023/06/18 04:03:30;;;;;;;4.32;3.05;;;;;;;;;;8347740;28;20033;-60
2023/06/18 04:07:30;;;;;;;3.90;3.03;;;;;;;;;;8345941;28;20028;-60
2023/06/18 04:11:30;;;;;;;5.45;3.10;;;;;;;;;;8349293;28;20112;-61
2023/06/18 04:15:31;;;;;;;3.92;2.97;;;;;;;;;;8345232;28;20040;-61
2023/06/18 04:19:31;;;;;;;5.10;3.33;;;;;;;;;;8347204;28;20089;-60
2023/06/18 04:23:32;;;;;;;3.70;2.95;;;;;;;;;;8345849;28;20032;-60
2023/06/18 04:27:32;;;;;;;3.55;3.25;;;;;;;;;;8345119;28;20019;-60
2023/06/18 04:31:32;;;;;;;5.55;3.20;;;;;;;;;;8347316;28;20038;-61
2023/06/18 04:35:32;;;;;;;3.45;2.80;;;;;;;;;;8347040;28;20535;-60
2023/06/18 04:39:33;;;;;;;4.25;3.05;;;;;;;;;;8345307;28;20194;-60
2023/06/18 04:43:33;;;;;;;2.97;2.77;;;;;;;;;;8343887;28;20504;-60
2023/06/18 04:47:34;;;;;;;3.92;3.20;;;;;;;;;;8344814;28;20388;-61
2023/06/18 04:51:34;;;;;;;3.33;3.03;;;;;;;;;;8347304;28;20048;-61
2023/06/18 04:55:34;;;;;;;3.10;2.80;;;;;;;;;;8345510;28;20067;-60
2023/06/18 04:59:34;;;;;;;3.97;3.08;;;;;;;;;;8343654;28;21025;-60
2023/06/18 05:03:34;;;;;;;4.10;2.80;;;;;;;;;;8347398;28;20425;-61
2023/06/18 05:07:35;;;;;;;3.30;2.97;;;;;;;;;;8345698;28;20477;-60
2023/06/18 05:11:35;;;;;;;5.55;3.40;;;;;;;;;;8345858;28;20017;-60
2023/06/18 05:15:35;;;;;;;3.33;3.03;;;;;;;;;;8345614;28;20131;-61
2023/06/18 05:19:35;;;;;;;4.35;3.50;;;;;;;;;;8351583;28;20036;-60
2023/06/18 05:23:35;;;;;;;4.32;3.38;;;;;;;;;;8352470;28;20029;-60
2023/06/18 05:27:36;;;;;;;3.80;3.40;;;;;;;;;;8352066;28;20027;-60
2023/06/18 05:31:36;;;;;;;3.83;3.53;;;;;;;;;;8349212;28;20062;-60
2023/06/18 05:35:36;;;;;;;5.35;3.40;;;;;;;;;;8352616;28;20038;-60
2023/06/18 05:39:37;;;;;;;5.05;3.58;;;;;;;;;;8353334;28;20407;-60
2023/06/18 05:43:37;;;;;;;4.28;3.25;;;;;;;;;;8353402;28;20025;-61
2023/06/18 05:47:37;;;;;;;4.60;3.70;;;;;;;;;;8352458;28;20039;-60
2023/06/18 05:51:37;;;;;;;4.57;3.80;;;;;;;;;;8350288;28;20052;-60
2023/06/18 05:55:37;;;;;;;7.60;4.03;;;;;;;;;;8349375;28;20116;-60
2023/06/18 05:59:38;;;;;;;5.63;4.32;;;;;;;;;;8352599;28;20021;-60
2023/06/18 06:03:38;;;;;;;4.70;4.18;;;;;;;;;;8351729;28;20036;-60
2023/06/18 06:07:38;;;;;;;5.05;4.45;;;;;;;;;;8351538;28;21122;-61
2023/06/18 06:11:38;;;;;;;8.90;5.13;;;;;;;;;;8349107;28;20473;-61
2023/06/18 06:15:38;;;;;;;5.47;4.97;;;;;;;;;;8348842;28;20091;-60
2023/06/18 06:19:38;;;;;;;6.97;4.60;;;;;;;;;;8349202;28;20024;-61
2023/06/18 06:23:39;;;;;;;5.72;4.93;;;;;;;;;;8348553;28;20020;-61
2023/06/18 06:27:41;;;;;;;6.18;4.35;;;;;;;;;;8345924;28;20470;-60
2023/06/18 06:31:41;;;;;;;6.68;5.00;;;;;;;;;;8349685;28;20090;-60
2023/06/18 06:35:42;;;;;;;6.97;5.18;;;;;;;;;;8347267;28;20024;-61
2023/06/18 06:39:42;;;;;;;5.73;4.47;;;;;;;;;;8353571;28;20052;-61
2023/06/18 06:43:42;;;;;;;6.13;4.85;;;;;;;;;;8350837;28;20050;-61
2023/06/18 06:47:42;;;;;;;6.07;4.53;;;;;;;;;;8349565;28;20740;-60
2023/06/18 06:51:42;;;;;;;6.88;4.20;;;;;;;;;;8350308;28;20112;-61
2023/06/18 06:55:42;;;;;;;6.05;4.70;;;;;;;;;;8347802;28;20032;-61
2023/06/18 06:59:43;;;;;;;7.67;5.00;;;;;;;;;;8352256;28;20131;-64
2023/06/18 07:03:43;;;;;;;4.85;4.32;;;;;;;;;;8348709;28;20028;-61
2023/06/18 07:07:43;;;;;;;5.78;4.53;;;;;;;;;;8348150;28;20047;-61
2023/06/18 07:11:43;;;;;;;4.50;4.10;;;;;;;;;;8350492;28;20028;-61
2023/06/18 07:15:44;;;;;;;4.68;4.28;;;;;;;;;;8345853;28;20047;-61
2023/06/18 07:19:44;;;;;;;4.47;4.07;;;;;;;;;;8346823;28;20102;-61
2023/06/18 07:23:44;;;;;;;4.72;4.32;;;;;;;;;;8348953;28;20062;-61
2023/06/18 07:27:44;;;;;;;5.72;4.20;;;;;;;;;;8345891;28;20568;-61
2023/06/18 07:31:45;;;;;;;6.23;4.60;;;;;;;;;;8349538;28;20033;-61
2023/06/18 07:35:45;;;;;;;5.28;4.20;;;;;;;;;;8343872;28;20041;-61
2023/06/18 07:39:45;;;;;;;5.38;4.32;;;;;;;;;;8347674;28;20023;-61
2023/06/18 07:43:45;;;;;;;5.53;4.60;;;;;;;;;;8349701;28;20059;-61
2023/06/18 07:47:46;;;;;;;6.50;4.35;;;;;;;;;;8349273;28;20240;-61
2023/06/18 07:51:46;;;;;;;4.55;3.80;;;;;;;;;;8349650;28;20024;-61
2023/06/18 07:55:46;;;;;;;13.65;4.60;;;;;;;;;;8346999;28;20028;-61
2023/06/18 07:59:47;;;;;;;4.60;4.20;;;;;;;;;;8349851;28;20509;-61
2023/06/18 08:03:47;;;;;;;9.10;4.63;;;;;;;;;;8348004;28;20109;-61
2023/06/18 08:07:47;;;;;;;6.88;4.38;;;;;;;;;;8344643;28;20020;-61
2023/06/18 08:11:48;;;;;;;5.00;4.00;;;;;;;;;;8348624;28;20039;-61
2023/06/18 08:15:49;;;;;;;4.83;4.40;;;;;;;;;;8347833;28;20138;-62
2023/06/18 08:19:49;;;;;;;4.37;3.97;;;;;;;;;;8347413;28;20021;-61
2023/06/18 08:23:50;;;;;;;6.27;4.60;;;;;;;;;;8347820;28;20017;-61
2023/06/18 08:27:50;;;;;;;7.17;4.40;;;;;;;;;;8347431;28;20028;-62
2023/06/18 08:31:50;;;;;;;5.10;4.30;;;;;;;;;;8329417;28;20037;-61
2023/06/18 08:35:51;;;;;;;5.27;4.63;;;;;;;;;;8347643;28;20029;-61
2023/06/18 08:39:51;;;;;;;6.30;4.30;;;;;;;;;;8330181;28;20488;-61
2023/06/18 08:43:51;;;;;;;5.18;3.90;;;;;;;;;;8348476;28;20807;-61
2023/06/18 08:47:53;;;;;;;5.45;4.35;;;;;;;;;;8345427;28;20119;-61
2023/06/18 08:51:53;;;;;;;;;;;;;;;;;;8347892;28;21010;-61
2023/06/18 08:55:53;;;;;;;4.57;4.20;;;;;;;;;;8351647;28;19927;-61
2023/06/18 08:59:54;;;;;;;4.93;4.47;;;;;;;;;;8353853;28;20035;-61
2023/06/18 09:03:55;;;;;;;4.77;4.10;;;;;;;;;;8352201;28;20040;-61
2023/06/18 09:07:55;;;;;;;5.35;4.47;;;;;;;;;;8349893;28;20064;-61
2023/06/18 09:11:56;;;;;;;6.10;4.20;;;;;;;;;;8353368;28;20109;-61
2023/06/18 09:15:56;;;;;;;5.23;4.20;;;;;;;;;;8351189;28;20049;-61
2023/06/18 09:19:57;;;;;;;5.60;4.38;;;;;;;;;;8334112;28;20056;-61
2023/06/18 09:23:57;;;;;;;5.97;3.93;;;;;;;;;;8348784;28;20032;-61
2023/06/18 09:27:57;;;;;;;5.68;3.95;;;;;;;;;;8347093;28;20024;-61
2023/06/18 09:32:04;;;;;;;5.35;3.97;;;;;;;;;;8347640;28;20029;-61
2023/06/18 09:36:06;;;;;;;8.32;4.03;;;;;;;;;;8346662;28;20485;-61
2023/06/18 09:40:15;;;;;;;4.03;3.60;;;;;;;;;;8346536;28;20048;-61
2023/06/18 09:44:17;;;;;;;4.32;3.92;;;;;;;;;;8346645;28;20024;-61
2023/06/18 09:48:17;;;;;;;4.20;3.80;;;;;;;;;;8345185;28;20041;-61
2023/06/18 09:52:17;;;;;;;4.72;3.50;;;;;;;;;;8312383;28;20429;-61
2023/06/18 09:56:17;;;;;;;5.82;3.53;;;;;;;;;;8343910;28;20414;-61
2023/06/18 10:00:18;;;;;;;4.07;3.30;;;;;;;;;;8328241;28;20064;-61
2023/06/18 10:04:18;;;;;;;5.43;3.60;;;;;;;;;;8348812;28;20103;-61
2023/06/18 10:08:19;;;;;;;3.83;3.20;;;;;;;;;;8345713;28;20036;-61
2023/06/18 10:12:19;;;;;;;5.03;3.40;;;;;;;;;;8350632;28;20059;-61
2023/06/18 10:16:20;;;;;;;6.23;3.13;;;;;;;;;;8347532;28;20500;-61
2023/06/18 10:20:22;;;;;;;5.22;3.28;;;;;;;;;;8302931;28;20060;-61
2023/06/18 10:24:41;;;;;;;3.55;3.22;;;;;;;;;;8300210;28;20051;-62
2023/06/18 10:28:41;;;;;;;6.05;3.50;;;;;;;;;;8304529;28;20184;-61
2023/06/18 10:32:46;;;;;;;6.03;3.80;;;;;;;;;;8298675;28;20068;-61
2023/06/18 10:36:47;;;;;;;4.53;3.58;;;;;;;;;;8316857;28;21012;-61
2023/06/18 10:40:47;;;;;;;3.38;3.08;;;;;;;;;;8323336;28;20060;-61
2023/06/18 10:44:47;;;;;;;5.67;3.30;;;;;;;;;;8332846;28;20044;-61
2023/06/18 10:49:08;;;;;;;5.13;3.50;;;;;;;;;;8379921;28;20035;-61
2023/06/18 10:53:23;;;;;;;5.28;3.10;;;;;;;;;;8370329;28;20434;-61
2023/06/18 10:57:28;;;;;;;4.32;3.20;;;;;;;;;;8381156;28;20046;-61
2023/06/18 11:01:28;;;;;;;4.38;3.00;;;;;;;;;;8383347;28;20661;-61
2023/06/18 11:05:31;;;;;;;4.78;3.35;;;;;;;;;;8379218;28;20092;-61
2023/06/18 11:09:45;;;;;;;4.03;3.50;;;;;;;;;;8382740;28;20103;-61
2023/06/18 11:13:53;;;;;;;4.13;3.50;;;;;;;;;;8381370;28;20035;-59
2023/06/18 11:17:55;;;;;;;3.38;3.17;;;;;;;;;;8379287;28;20611;-59
2023/06/18 11:21:56;;;;;;;3.55;3.25;;;;;;;;;;8379877;28;20492;-60
2023/06/18 11:25:57;;;;;;;4.13;3.22;;;;;;;;;;8379844;28;20051;-60
2023/06/18 11:29:57;;;;;;;5.40;3.40;;;;;;;;;;8381722;28;20039;-60
2023/06/18 11:34:02;;;;;;;3.73;3.43;;;;;;;;;;8380328;28;20032;-60
2023/06/18 11:38:04;;;;;;;4.38;3.40;;;;;;;;;;8379361;28;20066;-60
2023/06/18 11:42:20;;;;;;;6.32;3.78;;;;;;;;;;8375490;28;20032;-60
2023/06/18 11:46:27;;;;;;;6.68;3.95;;;;;;;;;;8347679;28;20024;-60
2023/06/18 11:50:27;;;;;;;4.13;3.80;;;;;;;;;;8344913;28;20021;-60
2023/06/18 11:54:28;;;;;;;5.18;3.30;;;;;;;;;;8347474;28;20073;-60
2023/06/18 11:58:28;;;;;;;4.25;3.50;;;;;;;;;;8345410;28;20109;-60
2023/06/18 12:02:28;;;;;;;4.95;3.30;;;;;;;;;;8343831;28;20040;-60
2023/06/18 12:06:29;;;;;;;3.53;3.07;;;;;;;;;;8345794;28;20550;-60
2023/06/18 12:10:29;;;;;;;8.40;4.20;;;;;;;;;;8346574;28;20106;-60
2023/06/18 12:14:48;;;;;;;4.37;3.67;;;;;;;;;;8344845;28;21060;-60
2023/06/18 12:18:50;;;;;;;4.15;3.40;;;;;;;;;;8341303;28;20108;-60
2023/06/18 12:22:50;;;;;;;;;;;;;;;;;;8344116;28;20469;-60
2023/06/18 12:26:50;;;;;;;6.88;3.47;;;;;;;;;;8342665;28;19913;-60
2023/06/18 12:30:51;;;;;;;4.57;3.80;;;;;;;;;;8343128;28;20067;-60
2023/06/18 12:34:51;;;;;;;6.63;3.45;;;;;;;;;;8345868;28;20020;-60
2023/06/18 12:38:51;;;;;;;3.75;3.45;;;;;;;;;;8343083;28;20029;-60
2023/06/18 12:42:52;;;;;;;4.25;3.80;;;;;;;;;;8342827;28;20095;-60
2023/06/18 12:46:56;;;;;;;4.55;4.05;;;;;;;;;;8344075;28;20140;-60
2023/06/18 12:50:59;;;;;;;5.70;3.65;;;;;;;;;;8343051;28;20024;-60
2023/06/18 12:54:59;;;;;;;3.60;3.30;;;;;;;;;;8343665;28;20025;-60
2023/06/18 12:59:01;;;;;;;5.60;3.57;;;;;;;;;;8343997;28;20020;-60
2023/06/18 13:03:02;;;;;;;3.95;3.65;;;;;;;;;;8345698;28;20043;-60
2023/06/18 13:07:03;;;;;;;7.00;3.90;;;;;;;;;;8343974;28;20044;-60
2023/06/18 13:11:05;;;;;;;5.22;3.53;;;;;;;;;;8345157;28;20060;-60
2023/06/18 13:15:06;;;;;;;3.97;3.60;;;;;;;;;;8343724;28;20079;-61
2023/06/18 13:19:07;;;;;;;3.90;3.50;;;;;;;;;;8343707;28;20888;-60
2023/06/18 13:23:09;;;;;;;4.40;3.53;;;;;;;;;;8343809;28;20279;-60
2023/06/18 13:27:09;;;;;;;3.90;3.50;;;;;;;;;;8342614;28;20037;-60
2023/06/18 13:31:09;;;;;;;5.27;3.50;;;;;;;;;;8344824;28;20028;-60
2023/06/18 13:35:09;;;;;;;6.57;3.40;;;;;;;;;;8328004;28;20044;-60
2023/06/18 13:39:09;;;;;;;5.20;3.17;;;;;;;;;;8342220;28;20036;-60
2023/06/18 13:43:11;;;;;;;5.47;3.70;;;;;;;;;;8348878;28;20028;-60
2023/06/18 13:47:12;;;;;;;4.10;3.70;;;;;;;;;;8348265;28;20048;-60
2023/06/18 13:51:14;;;;;;;3.87;3.47;;;;;;;;;;8347599;28;20086;-60
2023/06/18 13:55:14;;;;;;;5.50;3.22;;;;;;;;;;8337603;28;20090;-60
2023/06/18 13:59:15;;;;;;;4.00;3.43;;;;;;;;;;8348445;28;20116;-60
2023/06/18 14:03:16;;;;;;;5.17;3.23;;;;;;;;;;8347498;28;20028;-60
2023/06/18 14:07:16;;;;;;;5.90;3.30;;;;;;;;;;8349388;28;20052;-61
2023/06/18 14:11:17;;;;;;;4.07;3.57;;;;;;;;;;8346697;28;21543;-60
2023/06/18 14:15:17;;;;;;;4.40;3.30;;;;;;;;;;8348220;28;20401;-60
2023/06/18 14:19:17;;;;;;;4.23;3.33;;;;;;;;;;8348702;28;20008;-60
2023/06/18 14:23:19;;;;;;;4.00;3.40;;;;;;;;;;8341502;28;20021;-60
2023/06/18 14:27:19;;;;;;;3.95;3.30;;;;;;;;;;8341947;28;20957;-60
2023/06/18 14:31:19;;;;;;;4.97;3.25;;;;;;;;;;8348087;28;20037;-60
2023/06/18 14:35:20;;;;;;;3.83;3.20;;;;;;;;;;8349047;28;20021;-60
2023/06/18 14:39:20;;;;;;;6.00;4.13;;;;;;;;;;8346780;28;20032;-60
2023/06/18 14:43:21;;;;;;;5.07;4.57;;;;;;;;;;8348852;28;20021;-60
2023/06/18 14:47:21;;;;;;;40.90;28.13;;;;;;;;;;8326497;28;20609;-60
2023/06/18 14:51:21;;;;;;;6.30;5.30;;;;;;;;;;8346392;28;20028;-60
2023/06/18 14:55:22;;;;;;;4.87;4.30;;;;;;;;;;8345742;28;20039;-60
2023/06/18 14:59:22;;;;;;;9.50;4.20;;;;;;;;;;8347356;28;20020;-60
2023/06/18 15:03:22;;;;;;;5.90;4.72;;;;;;;;;;8344877;28;20063;-60
2023/06/18 15:07:22;;;;;;;3.92;3.50;;;;;;;;;;8346760;28;20020;-60
2023/06/18 15:11:22;;;;;;;4.45;3.78;;;;;;;;;;8347784;28;20025;-60
2023/06/18 15:15:25;;;;;;;3.58;3.08;;;;;;;;;;8345628;28;21040;-60
2023/06/18 15:19:25;;;;;;;6.07;3.30;;;;;;;;;;8345821;28;20013;-60
2023/06/18 15:23:25;;;;;;;6.55;3.00;;;;;;;;;;8347090;28;20136;-60
2023/06/18 15:27:26;;;;;;;3.22;3.00;;;;;;;;;;8347247;28;20028;-60
2023/06/18 15:31:26;;;;;;;3.60;3.27;;;;;;;;;;8346400;28;20136;-61
2023/06/18 15:35:26;;;;;;;3.70;3.40;;;;;;;;;;8346205;28;21505;-60
2023/06/18 15:39:26;;;;;;;3.43;3.13;;;;;;;;;;8344781;28;20155;-60
2023/06/18 15:43:28;;;;;;;4.43;3.73;;;;;;;;;;8344161;28;20029;-61
2023/06/18 15:47:28;;;;;;;3.63;3.33;;;;;;;;;;8344376;28;20275;-60
2023/06/18 15:51:28;;;;;;;3.25;2.95;;;;;;;;;;8346844;28;20086;-60
2023/06/18 15:55:28;;;;;;;3.97;3.00;;;;;;;;;;8343575;28;20420;-60
2023/06/18 15:59:29;;;;;;;3.50;3.13;;;;;;;;;;8347765;28;20029;-60
2023/06/18 16:03:29;;;;;;;3.22;3.00;;;;;;;;;;8343678;28;20032;-60
2023/06/18 16:07:30;;;;;;;2.83;2.63;;;;;;;;;;8345054;28;20518;-61
2023/06/18 16:11:31;;;;;;;3.30;3.10;;;;;;;;;;8345140;28;20040;-60
2023/06/18 16:15:31;;;;;;;3.13;2.92;;;;;;;;;;8345926;28;20071;-60
2023/06/18 16:19:31;;;;;;;3.07;2.77;;;;;;;;;;8345789;28;20032;-60
2023/06/18 16:23:31;;;;;;;3.50;3.20;;;;;;;;;;8345277;28;20028;-60
2023/06/18 16:27:32;;;;;;;3.47;2.83;;;;;;;;;;8344604;28;20060;-60
2023/06/18 16:31:32;;;;;;;3.38;3.00;;;;;;;;;;8345094;28;20097;-60
2023/06/18 16:35:32;;;;;;;3.28;3.03;;;;;;;;;;8324748;28;20194;-60
2023/06/18 16:39:33;;;;;;;6.78;3.25;;;;;;;;;;8344635;28;20025;-60
2023/06/18 16:43:33;;;;;;;3.40;3.10;;;;;;;;;;8344691;28;20024;-61
2023/06/18 16:47:33;;;;;;;4.47;3.30;;;;;;;;;;8322897;28;20089;-60
2023/06/18 16:51:33;;;;;;;5.23;3.10;;;;;;;;;;8344397;28;20055;-60
2023/06/18 16:55:35;;;;;;;3.35;2.85;;;;;;;;;;8343623;28;20772;-60
2023/06/18 16:59:35;;;;;;;3.30;2.90;;;;;;;;;;8345269;28;20131;-60
2023/06/18 17:03:35;;;;;;;2.90;2.57;;;;;;;;;;8343326;28;20677;-60
2023/06/18 17:07:36;;;;;;;2.97;2.77;;;;;;;;;;8342718;28;20029;-60
2023/06/18 17:11:36;;;;;;;3.17;2.88;;;;;;;;;;8346213;28;20028;-60
2023/06/18 17:15:36;;;;;;;2.97;2.73;;;;;;;;;;8348922;28;20048;-61
2023/06/18 17:19:37;;;;;;;3.37;2.77;;;;;;;;;;8349857;28;20024;-60
2023/06/18 17:23:37;;;;;;;3.15;2.90;;;;;;;;;;8351389;28;20062;-60
2023/06/18 17:27:37;;;;;;;6.73;3.00;;;;;;;;;;8346726;28;20153;-60
2023/06/18 17:31:38;;;;;;;3.73;3.17;;;;;;;;;;8349506;28;20397;-60
2023/06/18 17:35:38;;;;;;;6.03;3.28;;;;;;;;;;8348919;28;20038;-61
2023/06/18 17:39:38;;;;;;;3.10;2.80;;;;;;;;;;8349567;28;20856;-60
2023/06/18 17:43:38;;;;;;;3.70;3.33;;;;;;;;;;8350124;28;20021;-60
2023/06/18 17:47:39;;;;;;;3.97;3.50;;;;;;;;;;8348482;28;20082;-60
2023/06/18 17:51:39;;;;;;;6.40;3.50;;;;;;;;;;8347497;28;20040;-60
2023/06/18 17:55:39;;;;;;;4.47;3.63;;;;;;;;;;8345774;28;20036;-60
2023/06/18 17:59:40;;;;;;;4.87;3.60;;;;;;;;;;8346630;28;20028;-60
2023/06/18 18:03:40;;;;;;;3.58;3.28;;;;;;;;;;8343475;28;20294;-60
2023/06/18 18:07:41;;;;;;;3.55;3.25;;;;;;;;;;8340223;28;20035;-60
2023/06/18 18:11:41;;;;;;;4.28;3.60;;;;;;;;;;8342175;28;20534;-60
2023/06/18 18:15:42;;;;;;;3.90;3.50;;;;;;;;;;8339666;28;21260;-60
2023/06/18 18:19:42;;;;;;;3.92;3.50;;;;;;;;;;8340927;28;20025;-60
2023/06/18 18:23:43;;;;;;;5.53;3.50;;;;;;;;;;8342932;28;20070;-60
2023/06/18 18:27:43;;;;;;;5.97;3.55;;;;;;;;;;8339738;28;20044;-60
2023/06/18 18:31:44;;;;;;;4.22;3.42;;;;;;;;;;8341852;28;20910;-60
2023/06/18 18:35:44;;;;;;;3.55;3.25;;;;;;;;;;8342151;28;20063;-61
2023/06/18 18:39:44;;;;;;;3.70;3.38;;;;;;;;;;8340620;28;20103;-60
2023/06/18 18:43:45;;;;;;;4.93;3.67;;;;;;;;;;8361432;28;20032;-60
2023/06/18 18:47:45;;;;;;;3.97;3.42;;;;;;;;;;8375008;28;20047;-60
2023/06/18 18:51:45;;;;;;;3.67;3.28;;;;;;;;;;8374567;28;20035;-60
2023/06/18 18:55:45;;;;;;;4.97;3.30;;;;;;;;;;8374706;28;20032;-60
2023/06/18 18:59:47;;;;;;;3.90;3.17;;;;;;;;;;8374974;28;20583;-60
2023/06/18 19:03:48;;;;;;;5.82;3.40;;;;;;;;;;8373709;28;20447;-60
2023/06/18 19:07:48;;;;;;;5.22;3.17;;;;;;;;;;8371299;28;20036;-60
2023/06/18 19:11:48;;;;;;;7.03;3.60;;;;;;;;;;8374917;28;20502;-60
2023/06/18 19:15:48;;;;;;;3.70;3.40;;;;;;;;;;8370754;28;20040;-60
2023/06/18 19:19:48;;;;;;;3.63;3.28;;;;;;;;;;8372987;28;20032;-60
2023/06/18 19:23:49;;;;;;;3.60;3.35;;;;;;;;;;8368649;28;20689;-60
2023/06/18 19:27:49;;;;;;;3.85;3.45;;;;;;;;;;8358129;28;20028;-60
2023/06/18 19:31:53;;;;;;;3.53;3.05;;;;;;;;;;8364375;28;20092;-60
2023/06/18 19:35:53;;;;;;;3.50;3.20;;;;;;;;;;8365461;28;20770;-60
2023/06/18 19:39:54;;;;;;;6.57;3.50;;;;;;;;;;8369827;28;20024;-60
2023/06/18 19:43:54;;;;;;;4.47;3.22;;;;;;;;;;8354658;28;20469;-61
2023/06/18 19:47:54;;;;;;;4.93;3.83;;;;;;;;;;8334538;28;20470;-60
2023/06/18 19:51:54;;;;;;;3.97;3.33;;;;;;;;;;8330431;28;20544;-61
2023/06/18 19:55:58;;;;;;;4.50;3.50;;;;;;;;;;8332526;28;20291;-60
2023/06/18 19:59:58;;;;;;;7.07;3.60;;;;;;;;;;8334027;28;20100;-60
2023/06/18 20:03:58;;;;;;;4.00;3.50;;;;;;;;;;8339737;28;20893;-60
2023/06/18 20:08:00;;;;;;;7.40;3.60;;;;;;;;;;8332723;28;20087;-60
2023/06/18 20:12:00;;;;;;;4.18;3.10;;;;;;;;;;8335210;28;20089;-60
2023/06/18 20:16:01;;;;;;;3.73;3.40;;;;;;;;;;8331702;28;20041;-60
2023/06/18 20:20:01;;;;;;;6.13;3.60;;;;;;;;;;8338721;28;20013;-60
2023/06/18 20:24:01;;;;;;;3.80;3.47;;;;;;;;;;8340667;28;20024;-60
2023/06/18 20:28:02;;;;;;;4.27;3.40;;;;;;;;;;8337554;28;20029;-60
2023/06/18 20:32:02;;;;;;;5.75;3.47;;;;;;;;;;8336277;28;20490;-60
2023/06/18 20:36:03;;;;;;;6.78;3.78;;;;;;;;;;8335989;28;20025;-60
2023/06/18 20:40:03;;;;;;;7.05;3.33;;;;;;;;;;8338967;28;20157;-60
2023/06/18 20:44:06;;;;;;;6.30;3.53;;;;;;;;;;8339097;28;20036;-60
2023/06/18 20:48:07;;;;;;;5.50;3.22;;;;;;;;;;8335727;28;20033;-60
2023/06/18 20:52:07;;;;;;;3.78;3.47;;;;;;;;;;8338576;28;20017;-60
2023/06/18 20:56:08;;;;;;;4.68;3.47;;;;;;;;;;8339283;28;20025;-60
2023/06/18 21:00:09;;;;;;;3.53;3.20;;;;;;;;;;8337129;28;20490;-60
2023/06/18 21:04:09;;;;;;;4.07;3.30;;;;;;;;;;8337770;28;20735;-60
2023/06/18 21:08:09;;;;;;;4.13;3.25;;;;;;;;;;8334833;28;20031;-60
2023/06/18 21:12:09;;;;;;;3.72;3.42;;;;;;;;;;8341546;28;20035;-60
2023/06/18 21:16:10;;;;;;;5.03;3.30;;;;;;;;;;8342086;28;20564;-60
2023/06/18 21:20:11;;;;;;;3.80;3.08;;;;;;;;;;8338688;28;20024;-60
2023/06/18 21:24:11;;;;;;;3.40;3.10;;;;;;;;;;8337333;28;20025;-60
2023/06/18 21:28:11;;;;;;;4.13;3.47;;;;;;;;;;8337081;28;20139;-60
2023/06/18 21:32:11;;;;;;;6.05;3.65;;;;;;;;;;8337639;28;20559;-60
2023/06/18 21:36:13;;;;;;;4.37;3.60;;;;;;;;;;8335101;28;20029;-60
2023/06/18 21:40:14;;;;;;;5.80;3.70;;;;;;;;;;8338682;28;20028;-60
2023/06/18 21:44:14;;;;;;;5.60;3.75;;;;;;;;;;8339769;28;20544;-60
2023/06/18 21:48:14;;;;;;;3.80;3.42;;;;;;;;;;8337988;28;20091;-60
2023/06/18 21:52:15;;;;;;;5.47;3.60;;;;;;;;;;8340414;28;20028;-61
2023/06/18 21:56:15;;;;;;;4.32;3.42;;;;;;;;;;8338295;28;20037;-60
2023/06/18 22:00:16;;;;;;;4.60;3.70;;;;;;;;;;8338600;28;21016;-60
2023/06/18 22:04:17;;;;;;;4.00;3.60;;;;;;;;;;8345921;28;20036;-60
2023/06/18 22:08:17;;;;;;;4.50;3.33;;;;;;;;;;8342594;28;20037;-60
2023/06/18 22:12:18;;;;;;;5.07;3.40;;;;;;;;;;8343309;28;20517;-60
2023/06/18 22:16:18;;;;;;;4.00;3.60;;;;;;;;;;8323642;28;20036;-60
2023/06/18 22:20:18;;;;;;;4.22;3.45;;;;;;;;;;8343480;28;20122;-60
2023/06/18 22:24:18;;;;;;;3.55;3.22;;;;;;;;;;8343812;28;20104;-60
2023/06/18 22:28:19;;;;;;;5.05;3.60;;;;;;;;;;8343778;28;20033;-60
2023/06/18 22:32:19;;;;;;;5.50;3.83;;;;;;;;;;8342454;28;20047;-60
2023/06/18 22:36:19;;;;;;;3.70;3.40;;;;;;;;;;8343810;28;20081;-60
2023/06/18 22:40:20;;;;;;;5.80;3.53;;;;;;;;;;8345454;28;20056;-60
2023/06/18 22:44:20;;;;;;;3.58;2.92;;;;;;;;;;8346211;28;20032;-60
2023/06/18 22:48:20;;;;;;;3.60;3.30;;;;;;;;;;8345712;28;20036;-60
2023/06/18 22:52:20;;;;;;;3.92;3.63;;;;;;;;;;8345162;28;20029;-60
2023/06/18 22:56:27;;;;;;;4.25;3.67;;;;;;;;;;8346195;28;20012;-60
2023/06/18 23:00:28;;;;;;;3.90;3.35;;;;;;;;;;8346873;28;20040;-60
2023/06/18 23:04:28;;;;;;;3.67;3.38;;;;;;;;;;8347352;28;20032;-60
2023/06/18 23:08:28;;;;;;;3.67;3.30;;;;;;;;;;8346773;28;20035;-60
2023/06/18 23:12:28;;;;;;;3.50;3.20;;;;;;;;;;8349544;28;20102;-60
2023/06/18 23:16:29;;;;;;;5.05;3.58;;;;;;;;;;8348209;28;20074;-60
2023/06/18 23:20:29;;;;;;;4.10;3.22;;;;;;;;;;8347698;28;20151;-60
2023/06/18 23:24:30;;;;;;;4.97;3.60;;;;;;;;;;8344706;28;20077;-60
2023/06/18 23:28:31;;;;;;;4.05;3.22;;;;;;;;;;8346590;28;20520;-60
2023/06/18 23:32:32;;;;;;;4.10;3.60;;;;;;;;;;8331146;28;20029;-60
2023/06/18 23:36:35;;;;;;;4.68;3.95;;;;;;;;;;8347745;28;20116;-60
2023/06/18 23:40:35;;;;;;;4.00;3.67;;;;;;;;;;8345892;28;20352;-60
2023/06/18 23:44:35;;;;;;;3.95;3.58;;;;;;;;;;8344288;28;20028;-60
2023/06/18 23:48:36;;;;;;;5.32;4.10;;;;;;;;;;8345862;28;20037;-59
2023/06/18 23:52:36;;;;;;;7.17;3.80;;;;;;;;;;8344834;28;20027;-60
2023/06/18 23:56:36;;;;;;;4.78;4.00;;;;;;;;;;8344506;28;20031;-60
